KPMD/PMD METAR and TAF weather

Enter ICAO airport designator
Station Type Date Time Source
KPMD METAR 2019/10/15 20:53 UTC NOAA

KPMD 152053Z 36006KT 10SM CLR 27/M07 A3008 RMK AO2 SLPNO 6//// T02721067 $


Station Type Date Time Source
KPMD Decoded METAR 2019/10/15 20:53 UTC NOAA

PALMDALE PROD FLIGHT PLANT, CA, United States (KPMD) 34-38N 118-05W 780M
Oct 15, 2019 - 04:53 PM EDT / 2019.10.15 2053 UTC
Wind: from the N (360 degrees) at 7 MPH (6 KT):0
Visibility: 10 mile(s):0
Sky conditions: clear
Temperature: 81.0 F (27.2 C)
Dew Point: 19.9 F (-6.7 C)
Relative Humidity: 10%
Pressure (altimeter): 30.08 in. Hg (1018 hPa)
ob: KPMD 152053Z 36006KT 10SM CLR 27/M07 A3008 RMK AO2 SLPNO 6//// T02721067
cycle: 21

Station Type Date Time Source
KPMD TAF 2019/10/15 18:42 UTC NOAA

TAF KPMD 151739Z 1518/1618 VRB03KT P6SM SKC
FM152000 07006KT P6SM SKC
FM160200 20006KT P6SM SKC
FM161000 VRB03KT P6SM SKC
AMD LTD TO CLD

Example: see airport list